sensor_id;sensor_type;location;lat;lon;timestamp;P1;durP1;ratioP1;P2;durP2;ratioP2
55140;SDS011;41035;44.280;19.870;2022-07-10T00:01:54;6.22;;;1.52;;
55140;SDS011;41035;44.280;19.870;2022-07-10T00:04:20;7.18;;;1.20;;
55140;SDS011;41035;44.280;19.870;2022-07-10T00:06:46;3.53;;;1.13;;
55140;SDS011;41035;44.280;19.870;2022-07-10T00:09:13;3.72;;;1.10;;
55140;SDS011;41035;44.280;19.870;2022-07-10T00:11:39;2.20;;;1.10;;
55140;SDS011;41035;44.280;19.870;2022-07-10T00:14:05;3.80;;;0.95;;
55140;SDS011;41035;44.280;19.870;2022-07-10T00:16:31;7.90;;;1.20;;
55140;SDS011;41035;44.280;19.870;2022-07-10T00:18:57;8.30;;;1.10;;
55140;SDS011;41035;44.280;19.870;2022-07-10T00:21:23;5.03;;;1.10;;
55140;SDS011;41035;44.280;19.870;2022-07-10T00:23:49;2.53;;;1.08;;
55140;SDS011;41035;44.280;19.870;2022-07-10T00:26:15;3.53;;;1.10;;
55140;SDS011;41035;44.280;19.870;2022-07-10T00:28:41;1.75;;;0.82;;
55140;SDS011;41035;44.280;19.870;2022-07-10T00:31:08;5.50;;;1.05;;
55140;SDS011;41035;44.280;19.870;2022-07-10T00:33:35;2.60;;;0.98;;
55140;SDS011;41035;44.280;19.870;2022-07-10T00:36:02;3.00;;;1.10;;
55140;SDS011;41035;44.280;19.870;2022-07-10T00:38:28;1.90;;;1.15;;
55140;SDS011;41035;44.280;19.870;2022-07-10T00:40:54;3.63;;;1.20;;
55140;SDS011;41035;44.280;19.870;2022-07-10T00:43:20;2.10;;;0.80;;
55140;SDS011;41035;44.280;19.870;2022-07-10T00:45:48;1.98;;;1.10;;
55140;SDS011;41035;44.280;19.870;2022-07-10T00:48:14;2.88;;;1.00;;
55140;SDS011;41035;44.280;19.870;2022-07-10T00:50:40;2.75;;;0.85;;
55140;SDS011;41035;44.280;19.870;2022-07-10T00:53:07;2.25;;;1.10;;
55140;SDS011;41035;44.280;19.870;2022-07-10T00:55:34;3.10;;;1.13;;
55140;SDS011;41035;44.280;19.870;2022-07-10T00:58:01;2.22;;;1.00;;
55140;SDS011;41035;44.280;19.870;2022-07-10T01:00:28;4.13;;;1.00;;
55140;SDS011;41035;44.280;19.870;2022-07-10T01:02:54;3.50;;;1.27;;
55140;SDS011;41035;44.280;19.870;2022-07-10T01:05:20;4.32;;;1.25;;
55140;SDS011;41035;44.280;19.870;2022-07-10T01:07:46;2.97;;;1.17;;
55140;SDS011;41035;44.280;19.870;2022-07-10T01:10:12;3.65;;;1.00;;
55140;SDS011;41035;44.280;19.870;2022-07-10T01:12:38;4.15;;;1.27;;
55140;SDS011;41035;44.280;19.870;2022-07-10T01:15:05;2.25;;;0.93;;
55140;SDS011;41035;44.280;19.870;2022-07-10T01:17:32;1.55;;;0.80;;
55140;SDS011;41035;44.280;19.870;2022-07-10T01:19:58;3.13;;;0.98;;
55140;SDS011;41035;44.280;19.870;2022-07-10T01:22:24;7.90;;;1.38;;
55140;SDS011;41035;44.280;19.870;2022-07-10T01:24:50;2.72;;;1.13;;
55140;SDS011;41035;44.280;19.870;2022-07-10T01:27:16;1.33;;;0.90;;
55140;SDS011;41035;44.280;19.870;2022-07-10T01:29:42;4.28;;;1.30;;
55140;SDS011;41035;44.280;19.870;2022-07-10T01:32:10;1.87;;;1.00;;
55140;SDS011;41035;44.280;19.870;2022-07-10T01:34:36;2.15;;;0.90;;
55140;SDS011;41035;44.280;19.870;2022-07-10T01:37:02;1.30;;;0.85;;
55140;SDS011;41035;44.280;19.870;2022-07-10T01:39:28;3.35;;;1.20;;
55140;SDS011;41035;44.280;19.870;2022-07-10T01:41:54;5.45;;;1.17;;
55140;SDS011;41035;44.280;19.870;2022-07-10T01:44:20;3.67;;;1.17;;
55140;SDS011;41035;44.280;19.870;2022-07-10T01:46:46;3.15;;;1.27;;
55140;SDS011;41035;44.280;19.870;2022-07-10T01:49:14;1.90;;;1.02;;
55140;SDS011;41035;44.280;19.870;2022-07-10T01:51:40;4.10;;;1.15;;
55140;SDS011;41035;44.280;19.870;2022-07-10T01:54:07;3.05;;;1.00;;
55140;SDS011;41035;44.280;19.870;2022-07-10T01:56:33;7.80;;;1.10;;
55140;SDS011;41035;44.280;19.870;2022-07-10T01:59:00;5.60;;;1.40;;
55140;SDS011;41035;44.280;19.870;2022-07-10T02:01:28;3.25;;;1.00;;
55140;SDS011;41035;44.280;19.870;2022-07-10T02:03:54;6.38;;;1.10;;
55140;SDS011;41035;44.280;19.870;2022-07-10T02:06:38;4.65;;;0.90;;
55140;SDS011;41035;44.280;19.870;2022-07-10T02:09:04;2.35;;;1.10;;
55140;SDS011;41035;44.280;19.870;2022-07-10T02:11:30;4.00;;;1.42;;
55140;SDS011;41035;44.280;19.870;2022-07-10T02:13:56;2.70;;;0.98;;
55140;SDS011;41035;44.280;19.870;2022-07-10T02:16:22;4.22;;;1.30;;
55140;SDS011;41035;44.280;19.870;2022-07-10T02:18:48;1.58;;;0.88;;
55140;SDS011;41035;44.280;19.870;2022-07-10T02:21:15;2.20;;;0.93;;
55140;SDS011;41035;44.280;19.870;2022-07-10T02:23:41;2.20;;;1.00;;
55140;SDS011;41035;44.280;19.870;2022-07-10T02:26:07;3.75;;;1.25;;
55140;SDS011;41035;44.280;19.870;2022-07-10T02:28:33;2.42;;;1.13;;
55140;SDS011;41035;44.280;19.870;2022-07-10T02:30:59;4.75;;;1.20;;
55140;SDS011;41035;44.280;19.870;2022-07-10T02:33:26;3.50;;;1.20;;
55140;SDS011;41035;44.280;19.870;2022-07-10T02:35:52;6.57;;;1.35;;
55140;SDS011;41035;44.280;19.870;2022-07-10T02:38:18;3.22;;;1.40;;
55140;SDS011;41035;44.280;19.870;2022-07-10T02:40:44;2.67;;;1.05;;
55140;SDS011;41035;44.280;19.870;2022-07-10T02:43:10;3.50;;;1.30;;
55140;SDS011;41035;44.280;19.870;2022-07-10T02:45:36;2.92;;;1.10;;
55140;SDS011;41035;44.280;19.870;2022-07-10T02:48:02;1.77;;;0.90;;
55140;SDS011;41035;44.280;19.870;2022-07-10T02:50:28;4.93;;;1.48;;
55140;SDS011;41035;44.280;19.870;2022-07-10T02:52:54;4.32;;;1.00;;
55140;SDS011;41035;44.280;19.870;2022-07-10T02:55:21;2.10;;;0.93;;
55140;SDS011;41035;44.280;19.870;2022-07-10T02:57:47;2.70;;;1.27;;
55140;SDS011;41035;44.280;19.870;2022-07-10T03:00:13;2.60;;;1.20;;
55140;SDS011;41035;44.280;19.870;2022-07-10T03:02:39;2.63;;;1.10;;
55140;SDS011;41035;44.280;19.870;2022-07-10T03:05:05;5.80;;;1.10;;
55140;SDS011;41035;44.280;19.870;2022-07-10T03:07:31;6.05;;;1.08;;
55140;SDS011;41035;44.280;19.870;2022-07-10T03:09:57;4.55;;;0.80;;
55140;SDS011;41035;44.280;19.870;2022-07-10T03:12:23;1.80;;;1.30;;
55140;SDS011;41035;44.280;19.870;2022-07-10T03:14:49;5.07;;;1.23;;
55140;SDS011;41035;44.280;19.870;2022-07-10T03:17:16;2.42;;;0.98;;
55140;SDS011;41035;44.280;19.870;2022-07-10T03:19:42;2.95;;;1.13;;
55140;SDS011;41035;44.280;19.870;2022-07-10T03:22:08;3.00;;;1.27;;
55140;SDS011;41035;44.280;19.870;2022-07-10T03:24:34;3.70;;;1.00;;
55140;SDS011;41035;44.280;19.870;2022-07-10T03:27:00;6.75;;;1.63;;
55140;SDS011;41035;44.280;19.870;2022-07-10T03:29:26;3.80;;;1.27;;
55140;SDS011;41035;44.280;19.870;2022-07-10T03:31:52;4.90;;;1.70;;
55140;SDS011;41035;44.280;19.870;2022-07-10T03:34:18;4.40;;;1.45;;
55140;SDS011;41035;44.280;19.870;2022-07-10T03:36:44;4.47;;;1.63;;
55140;SDS011;41035;44.280;19.870;2022-07-10T03:39:10;3.40;;;1.63;;
55140;SDS011;41035;44.280;19.870;2022-07-10T03:41:36;7.07;;;1.10;;
55140;SDS011;41035;44.280;19.870;2022-07-10T03:44:02;4.85;;;1.65;;
55140;SDS011;41035;44.280;19.870;2022-07-10T03:46:28;5.32;;;1.30;;
55140;SDS011;41035;44.280;19.870;2022-07-10T03:48:54;5.85;;;1.30;;
55140;SDS011;41035;44.280;19.870;2022-07-10T03:51:20;5.05;;;1.50;;
55140;SDS011;41035;44.280;19.870;2022-07-10T03:53:47;7.38;;;1.60;;
55140;SDS011;41035;44.280;19.870;2022-07-10T03:56:13;6.20;;;1.60;;
55140;SDS011;41035;44.280;19.870;2022-07-10T03:58:59;8.02;;;1.27;;
55140;SDS011;41035;44.280;19.870;2022-07-10T04:01:25;4.00;;;1.20;;
55140;SDS011;41035;44.280;19.870;2022-07-10T04:03:51;3.03;;;1.20;;
55140;SDS011;41035;44.280;19.870;2022-07-10T04:06:17;2.45;;;1.20;;
55140;SDS011;41035;44.280;19.870;2022-07-10T04:08:43;4.00;;;1.40;;
55140;SDS011;41035;44.280;19.870;2022-07-10T04:11:09;2.38;;;1.30;;
55140;SDS011;41035;44.280;19.870;2022-07-10T04:13:35;4.32;;;1.42;;
55140;SDS011;41035;44.280;19.870;2022-07-10T04:16:02;4.97;;;1.48;;
55140;SDS011;41035;44.280;19.870;2022-07-10T04:18:28;4.93;;;1.40;;
55140;SDS011;41035;44.280;19.870;2022-07-10T04:20:54;5.78;;;1.38;;
55140;SDS011;41035;44.280;19.870;2022-07-10T04:23:20;4.07;;;1.30;;
55140;SDS011;41035;44.280;19.870;2022-07-10T04:25:46;2.33;;;1.15;;
55140;SDS011;41035;44.280;19.870;2022-07-10T04:28:12;2.90;;;1.20;;
55140;SDS011;41035;44.280;19.870;2022-07-10T04:30:38;3.95;;;1.30;;
55140;SDS011;41035;44.280;19.870;2022-07-10T04:33:05;3.85;;;1.40;;
55140;SDS011;41035;44.280;19.870;2022-07-10T04:35:31;4.15;;;1.20;;
55140;SDS011;41035;44.280;19.870;2022-07-10T04:37:57;4.35;;;1.38;;
55140;SDS011;41035;44.280;19.870;2022-07-10T04:40:23;6.28;;;1.23;;
55140;SDS011;41035;44.280;19.870;2022-07-10T04:42:49;7.53;;;1.70;;
55140;SDS011;41035;44.280;19.870;2022-07-10T04:45:15;4.03;;;1.17;;
55140;SDS011;41035;44.280;19.870;2022-07-10T04:47:41;4.28;;;1.20;;
55140;SDS011;41035;44.280;19.870;2022-07-10T04:50:07;4.55;;;1.40;;
55140;SDS011;41035;44.280;19.870;2022-07-10T04:52:34;3.35;;;1.40;;
55140;SDS011;41035;44.280;19.870;2022-07-10T04:55:01;4.55;;;1.27;;
55140;SDS011;41035;44.280;19.870;2022-07-10T04:57:27;8.23;;;1.00;;
55140;SDS011;41035;44.280;19.870;2022-07-10T04:59:53;5.65;;;1.45;;
55140;SDS011;41035;44.280;19.870;2022-07-10T05:02:21;2.60;;;1.20;;
55140;SDS011;41035;44.280;19.870;2022-07-10T05:04:47;5.93;;;1.60;;
55140;SDS011;41035;44.280;19.870;2022-07-10T05:07:13;6.15;;;1.48;;
55140;SDS011;41035;44.280;19.870;2022-07-10T05:09:40;3.45;;;1.48;;
55140;SDS011;41035;44.280;19.870;2022-07-10T05:12:06;2.55;;;1.33;;
55140;SDS011;41035;44.280;19.870;2022-07-10T05:14:32;4.40;;;1.10;;
55140;SDS011;41035;44.280;19.870;2022-07-10T05:16:58;4.60;;;1.30;;
55140;SDS011;41035;44.280;19.870;2022-07-10T05:19:25;6.47;;;1.60;;
55140;SDS011;41035;44.280;19.870;2022-07-10T05:21:51;5.18;;;1.10;;
55140;SDS011;41035;44.280;19.870;2022-07-10T05:24:17;3.38;;;1.35;;
55140;SDS011;41035;44.280;19.870;2022-07-10T05:26:43;4.68;;;1.30;;
55140;SDS011;41035;44.280;19.870;2022-07-10T05:29:09;5.93;;;1.40;;
55140;SDS011;41035;44.280;19.870;2022-07-10T05:31:35;7.05;;;1.50;;
55140;SDS011;41035;44.280;19.870;2022-07-10T05:34:01;2.25;;;1.30;;
55140;SDS011;41035;44.280;19.870;2022-07-10T05:36:27;7.22;;;1.38;;
55140;SDS011;41035;44.280;19.870;2022-07-10T05:38:53;5.63;;;1.42;;
55140;SDS011;41035;44.280;19.870;2022-07-10T05:41:19;3.28;;;1.25;;
55140;SDS011;41035;44.280;19.870;2022-07-10T05:43:45;3.25;;;1.55;;
55140;SDS011;41035;44.280;19.870;2022-07-10T05:46:12;6.28;;;1.40;;
55140;SDS011;41035;44.280;19.870;2022-07-10T05:48:38;6.95;;;1.40;;
55140;SDS011;41035;44.280;19.870;2022-07-10T05:51:04;6.35;;;1.50;;
55140;SDS011;41035;44.280;19.870;2022-07-10T05:53:30;2.30;;;1.20;;
55140;SDS011;41035;44.280;19.870;2022-07-10T05:55:59;7.25;;;1.17;;
55140;SDS011;41035;44.280;19.870;2022-07-10T05:58:26;3.53;;;1.15;;
55140;SDS011;41035;44.280;19.870;2022-07-10T06:00:52;5.63;;;1.33;;
55140;SDS011;41035;44.280;19.870;2022-07-10T06:03:18;4.97;;;1.52;;
55140;SDS011;41035;44.280;19.870;2022-07-10T06:05:46;7.70;;;1.33;;
55140;SDS011;41035;44.280;19.870;2022-07-10T06:08:12;4.75;;;1.40;;
55140;SDS011;41035;44.280;19.870;2022-07-10T06:10:40;4.45;;;1.40;;
55140;SDS011;41035;44.280;19.870;2022-07-10T06:13:09;7.40;;;1.55;;
55140;SDS011;41035;44.280;19.870;2022-07-10T06:15:35;5.35;;;1.42;;
55140;SDS011;41035;44.280;19.870;2022-07-10T06:18:01;4.95;;;1.35;;
55140;SDS011;41035;44.280;19.870;2022-07-10T06:20:27;4.57;;;1.45;;
55140;SDS011;41035;44.280;19.870;2022-07-10T06:22:53;3.70;;;1.45;;
55140;SDS011;41035;44.280;19.870;2022-07-10T06:25:19;2.78;;;1.10;;
55140;SDS011;41035;44.280;19.870;2022-07-10T06:27:46;3.67;;;1.38;;
55140;SDS011;41035;44.280;19.870;2022-07-10T06:30:12;2.03;;;1.10;;
55140;SDS011;41035;44.280;19.870;2022-07-10T06:32:38;7.55;;;1.13;;
55140;SDS011;41035;44.280;19.870;2022-07-10T06:35:04;3.00;;;1.20;;
55140;SDS011;41035;44.280;19.870;2022-07-10T06:39:59;7.07;;;1.17;;
55140;SDS011;41035;44.280;19.870;2022-07-10T06:42:26;4.93;;;1.45;;
55140;SDS011;41035;44.280;19.870;2022-07-10T06:44:52;3.22;;;1.20;;
55140;SDS011;41035;44.280;19.870;2022-07-10T06:47:18;3.08;;;1.13;;
55140;SDS011;41035;44.280;19.870;2022-07-10T06:50:07;2.28;;;1.23;;
55140;SDS011;41035;44.280;19.870;2022-07-10T06:52:34;3.38;;;1.10;;
55140;SDS011;41035;44.280;19.870;2022-07-10T06:55:01;1.80;;;1.02;;
55140;SDS011;41035;44.280;19.870;2022-07-10T06:57:27;4.55;;;1.02;;
55140;SDS011;41035;44.280;19.870;2022-07-10T06:59:54;7.15;;;1.10;;
55140;SDS011;41035;44.280;19.870;2022-07-10T07:02:21;3.25;;;0.90;;
55140;SDS011;41035;44.280;19.870;2022-07-10T07:04:47;2.30;;;1.10;;
55140;SDS011;41035;44.280;19.870;2022-07-10T07:07:14;2.72;;;1.05;;
55140;SDS011;41035;44.280;19.870;2022-07-10T07:09:40;6.97;;;1.17;;
55140;SDS011;41035;44.280;19.870;2022-07-10T07:12:08;2.00;;;1.00;;
55140;SDS011;41035;44.280;19.870;2022-07-10T07:14:35;6.50;;;1.05;;
55140;SDS011;41035;44.280;19.870;2022-07-10T07:17:01;2.28;;;1.00;;
55140;SDS011;41035;44.280;19.870;2022-07-10T07:19:36;3.30;;;1.10;;
55140;SDS011;41035;44.280;19.870;2022-07-10T07:22:21;2.50;;;0.95;;
55140;SDS011;41035;44.280;19.870;2022-07-10T07:25:06;2.20;;;0.88;;
55140;SDS011;41035;44.280;19.870;2022-07-10T07:27:33;3.05;;;1.05;;
55140;SDS011;41035;44.280;19.870;2022-07-10T07:30:07;1.85;;;0.90;;
55140;SDS011;41035;44.280;19.870;2022-07-10T07:32:35;2.05;;;0.90;;
55140;SDS011;41035;44.280;19.870;2022-07-10T07:35:02;1.88;;;1.20;;
55140;SDS011;41035;44.280;19.870;2022-07-10T07:37:37;2.05;;;0.80;;
55140;SDS011;41035;44.280;19.870;2022-07-10T07:40:04;2.05;;;1.05;;
55140;SDS011;41035;44.280;19.870;2022-07-10T07:42:30;7.47;;;1.08;;
55140;SDS011;41035;44.280;19.870;2022-07-10T07:44:56;2.33;;;1.10;;
55140;SDS011;41035;44.280;19.870;2022-07-10T07:47:22;3.40;;;1.00;;
55140;SDS011;41035;44.280;19.870;2022-07-10T07:49:48;3.70;;;1.00;;
55140;SDS011;41035;44.280;19.870;2022-07-10T07:52:14;2.15;;;1.00;;
55140;SDS011;41035;44.280;19.870;2022-07-10T07:54:44;4.68;;;1.42;;
55140;SDS011;41035;44.280;19.870;2022-07-10T07:57:10;3.45;;;0.88;;
55140;SDS011;41035;44.280;19.870;2022-07-10T07:59:36;4.97;;;1.30;;
55140;SDS011;41035;44.280;19.870;2022-07-10T08:02:02;4.28;;;1.15;;
55140;SDS011;41035;44.280;19.870;2022-07-10T08:04:29;5.18;;;1.70;;
55140;SDS011;41035;44.280;19.870;2022-07-10T08:06:55;6.85;;;1.38;;
55140;SDS011;41035;44.280;19.870;2022-07-10T08:09:21;3.70;;;1.20;;
55140;SDS011;41035;44.280;19.870;2022-07-10T08:11:47;3.63;;;1.50;;
55140;SDS011;41035;44.280;19.870;2022-07-10T08:14:13;4.85;;;2.17;;
55140;SDS011;41035;44.280;19.870;2022-07-10T08:16:41;5.17;;;1.13;;
55140;SDS011;41035;44.280;19.870;2022-07-10T08:19:07;2.03;;;0.85;;
55140;SDS011;41035;44.280;19.870;2022-07-10T08:21:33;2.22;;;1.10;;
55140;SDS011;41035;44.280;19.870;2022-07-10T08:24:01;7.53;;;0.90;;
55140;SDS011;41035;44.280;19.870;2022-07-10T08:26:27;5.47;;;1.17;;
55140;SDS011;41035;44.280;19.870;2022-07-10T08:28:53;3.90;;;1.00;;
55140;SDS011;41035;44.280;19.870;2022-07-10T08:31:19;5.00;;;2.08;;
55140;SDS011;41035;44.280;19.870;2022-07-10T08:33:45;10.25;;;4.40;;
55140;SDS011;41035;44.280;19.870;2022-07-10T08:36:11;14.10;;;4.10;;
55140;SDS011;41035;44.280;19.870;2022-07-10T08:38:37;5.57;;;3.20;;
55140;SDS011;41035;44.280;19.870;2022-07-10T08:41:05;4.30;;;1.98;;
55140;SDS011;41035;44.280;19.870;2022-07-10T08:43:31;1.38;;;1.10;;
55140;SDS011;41035;44.280;19.870;2022-07-10T08:45:58;2.95;;;1.73;;
55140;SDS011;41035;44.280;19.870;2022-07-10T08:48:24;4.40;;;1.30;;
55140;SDS011;41035;44.280;19.870;2022-07-10T08:50:53;3.35;;;1.45;;
55140;SDS011;41035;44.280;19.870;2022-07-10T08:53:30;1.70;;;0.80;;
55140;SDS011;41035;44.280;19.870;2022-07-10T08:55:59;1.48;;;1.00;;
55140;SDS011;41035;44.280;19.870;2022-07-10T08:58:28;2.05;;;0.93;;
55140;SDS011;41035;44.280;19.870;2022-07-10T09:00:55;2.88;;;0.88;;
55140;SDS011;41035;44.280;19.870;2022-07-10T09:03:21;2.75;;;0.90;;
55140;SDS011;41035;44.280;19.870;2022-07-10T09:05:47;2.22;;;0.80;;
55140;SDS011;41035;44.280;19.870;2022-07-10T09:08:26;3.05;;;0.90;;
55140;SDS011;41035;44.280;19.870;2022-07-10T09:11:17;3.67;;;1.20;;
55140;SDS011;41035;44.280;19.870;2022-07-10T09:16:22;1.88;;;1.00;;
55140;SDS011;41035;44.280;19.870;2022-07-10T09:18:48;6.13;;;0.95;;
55140;SDS011;41035;44.280;19.870;2022-07-10T09:21:14;3.08;;;0.75;;
55140;SDS011;41035;44.280;19.870;2022-07-10T09:23:43;2.38;;;1.30;;
55140;SDS011;41035;44.280;19.870;2022-07-10T09:26:10;2.40;;;1.00;;
55140;SDS011;41035;44.280;19.870;2022-07-10T09:28:37;4.30;;;0.93;;
55140;SDS011;41035;44.280;19.870;2022-07-10T09:31:03;0.55;;;0.50;;
55140;SDS011;41035;44.280;19.870;2022-07-10T09:33:30;1.48;;;0.60;;
55140;SDS011;41035;44.280;19.870;2022-07-10T09:36:01;3.65;;;1.38;;
55140;SDS011;41035;44.280;19.870;2022-07-10T09:41:16;1.45;;;0.70;;
55140;SDS011;41035;44.280;19.870;2022-07-10T09:43:43;2.22;;;0.60;;
55140;SDS011;41035;44.280;19.870;2022-07-10T09:46:10;1.75;;;0.65;;
55140;SDS011;41035;44.280;19.870;2022-07-10T09:48:36;1.58;;;0.70;;
55140;SDS011;41035;44.280;19.870;2022-07-10T09:51:02;0.73;;;0.60;;
55140;SDS011;41035;44.280;19.870;2022-07-10T09:53:29;5.95;;;0.80;;
55140;SDS011;41035;44.280;19.870;2022-07-10T09:55:56;2.60;;;1.13;;
55140;SDS011;41035;44.280;19.870;2022-07-10T09:58:22;2.17;;;1.10;;
55140;SDS011;41035;44.280;19.870;2022-07-10T10:00:53;3.45;;;2.55;;
55140;SDS011;41035;44.280;19.870;2022-07-10T10:03:20;2.05;;;0.80;;
55140;SDS011;41035;44.280;19.870;2022-07-10T10:05:52;1.17;;;0.60;;
55140;SDS011;41035;44.280;19.870;2022-07-10T10:08:22;2.33;;;1.20;;
55140;SDS011;41035;44.280;19.870;2022-07-10T10:10:50;1.75;;;1.00;;
55140;SDS011;41035;44.280;19.870;2022-07-10T10:13:18;8.15;;;1.40;;
55140;SDS011;41035;44.280;19.870;2022-07-10T10:15:45;4.85;;;1.40;;
55140;SDS011;41035;44.280;19.870;2022-07-10T10:18:12;2.83;;;1.20;;
55140;SDS011;41035;44.280;19.870;2022-07-10T10:20:40;1.40;;;0.95;;
55140;SDS011;41035;44.280;19.870;2022-07-10T10:23:12;4.15;;;1.10;;
55140;SDS011;41035;44.280;19.870;2022-07-10T10:25:40;1.90;;;1.13;;
55140;SDS011;41035;44.280;19.870;2022-07-10T10:28:10;1.52;;;0.80;;
55140;SDS011;41035;44.280;19.870;2022-07-10T10:30:38;1.83;;;0.90;;
55140;SDS011;41035;44.280;19.870;2022-07-10T10:33:53;2.80;;;1.40;;
55140;SDS011;41035;44.280;19.870;2022-07-10T10:35:50;1.42;;;0.90;;
55140;SDS011;41035;44.280;19.870;2022-07-10T10:38:17;1.40;;;0.90;;
55140;SDS011;41035;44.280;19.870;2022-07-10T10:40:43;0.95;;;0.60;;
55140;SDS011;41035;44.280;19.870;2022-07-10T10:43:22;2.13;;;0.80;;
55140;SDS011;41035;44.280;19.870;2022-07-10T10:45:52;1.13;;;0.70;;
55140;SDS011;41035;44.280;19.870;2022-07-10T10:48:21;1.02;;;0.60;;
55140;SDS011;41035;44.280;19.870;2022-07-10T10:50:54;3.58;;;0.70;;
55140;SDS011;41035;44.280;19.870;2022-07-10T10:53:22;1.00;;;0.60;;
55140;SDS011;41035;44.280;19.870;2022-07-10T10:58:36;3.75;;;0.73;;
55140;SDS011;41035;44.280;19.870;2022-07-10T11:01:23;0.60;;;0.40;;
55140;SDS011;41035;44.280;19.870;2022-07-10T11:06:44;2.72;;;1.08;;
55140;SDS011;41035;44.280;19.870;2022-07-10T11:14:24;1.73;;;0.90;;
55140;SDS011;41035;44.280;19.870;2022-07-10T11:16:53;2.95;;;1.23;;
55140;SDS011;41035;44.280;19.870;2022-07-10T11:19:23;1.58;;;1.10;;
55140;SDS011;41035;44.280;19.870;2022-07-10T11:21:52;4.93;;;3.17;;
55140;SDS011;41035;44.280;19.870;2022-07-10T11:27:55;5.25;;;1.50;;
55140;SDS011;41035;44.280;19.870;2022-07-10T11:29:56;2.55;;;1.83;;
55140;SDS011;41035;44.280;19.870;2022-07-10T11:32:22;1.92;;;1.10;;
55140;SDS011;41035;44.280;19.870;2022-07-10T11:34:50;1.20;;;0.55;;
55140;SDS011;41035;44.280;19.870;2022-07-10T11:37:19;2.10;;;0.50;;
55140;SDS011;41035;44.280;19.870;2022-07-10T11:39:48;0.85;;;0.50;;
55140;SDS011;41035;44.280;19.870;2022-07-10T11:42:15;0.80;;;0.57;;
55140;SDS011;41035;44.280;19.870;2022-07-10T11:44:41;3.88;;;0.70;;
55140;SDS011;41035;44.280;19.870;2022-07-10T11:47:07;2.33;;;0.47;;
55140;SDS011;41035;44.280;19.870;2022-07-10T11:49:33;1.48;;;0.60;;
55140;SDS011;41035;44.280;19.870;2022-07-10T11:52:09;2.22;;;0.63;;
55140;SDS011;41035;44.280;19.870;2022-07-10T11:54:38;1.33;;;0.88;;
55140;SDS011;41035;44.280;19.870;2022-07-10T11:57:07;1.08;;;0.70;;
55140;SDS011;41035;44.280;19.870;2022-07-10T11:59:33;3.83;;;0.70;;
55140;SDS011;41035;44.280;19.870;2022-07-10T12:02:00;1.13;;;0.57;;
55140;SDS011;41035;44.280;19.870;2022-07-10T12:04:28;1.15;;;0.47;;
55140;SDS011;41035;44.280;19.870;2022-07-10T12:06:54;1.52;;;0.40;;
55140;SDS011;41035;44.280;19.870;2022-07-10T12:09:23;3.53;;;0.43;;
55140;SDS011;41035;44.280;19.870;2022-07-10T12:11:59;1.95;;;0.70;;
55140;SDS011;41035;44.280;19.870;2022-07-10T12:14:26;4.05;;;0.50;;
55140;SDS011;41035;44.280;19.870;2022-07-10T12:16:52;2.78;;;0.80;;
55140;SDS011;41035;44.280;19.870;2022-07-10T12:19:19;0.77;;;0.40;;
55140;SDS011;41035;44.280;19.870;2022-07-10T12:21:47;2.67;;;0.50;;
55140;SDS011;41035;44.280;19.870;2022-07-10T12:24:17;1.20;;;0.45;;
55140;SDS011;41035;44.280;19.870;2022-07-10T12:26:45;1.42;;;0.60;;
55140;SDS011;41035;44.280;19.870;2022-07-10T12:29:12;3.45;;;0.60;;
55140;SDS011;41035;44.280;19.870;2022-07-10T12:31:44;1.67;;;0.60;;
55140;SDS011;41035;44.280;19.870;2022-07-10T12:34:11;1.35;;;0.60;;
55140;SDS011;41035;44.280;19.870;2022-07-10T12:36:48;0.52;;;0.52;;
55140;SDS011;41035;44.280;19.870;2022-07-10T12:39:22;1.27;;;0.60;;
55140;SDS011;41035;44.280;19.870;2022-07-10T12:41:55;0.95;;;0.55;;
55140;SDS011;41035;44.280;19.870;2022-07-10T12:44:41;1.15;;;0.38;;
55140;SDS011;41035;44.280;19.870;2022-07-10T12:52:19;3.38;;;0.60;;
55140;SDS011;41035;44.280;19.870;2022-07-10T12:54:46;3.40;;;0.52;;
55140;SDS011;41035;44.280;19.870;2022-07-10T12:57:12;0.80;;;0.35;;
55140;SDS011;41035;44.280;19.870;2022-07-10T12:59:38;3.80;;;0.50;;
55140;SDS011;41035;44.280;19.870;2022-07-10T13:02:16;1.15;;;0.57;;
55140;SDS011;41035;44.280;19.870;2022-07-10T13:04:52;0.40;;;0.40;;
55140;SDS011;41035;44.280;19.870;2022-07-10T13:07:19;1.10;;;0.40;;
55140;SDS011;41035;44.280;19.870;2022-07-10T13:09:46;1.60;;;0.50;;
55140;SDS011;41035;44.280;19.870;2022-07-10T13:12:15;0.90;;;0.60;;
55140;SDS011;41035;44.280;19.870;2022-07-10T13:14:41;1.10;;;0.63;;
55140;SDS011;41035;44.280;19.870;2022-07-10T13:17:07;3.33;;;0.80;;
55140;SDS011;41035;44.280;19.870;2022-07-10T13:19:33;0.77;;;0.63;;
55140;SDS011;41035;44.280;19.870;2022-07-10T13:21:59;1.25;;;0.77;;
55140;SDS011;41035;44.280;19.870;2022-07-10T13:24:25;1.92;;;0.60;;
55140;SDS011;41035;44.280;19.870;2022-07-10T13:26:53;0.77;;;0.60;;
55140;SDS011;41035;44.280;19.870;2022-07-10T13:29:22;0.93;;;0.60;;
55140;SDS011;41035;44.280;19.870;2022-07-10T13:31:48;1.45;;;0.80;;
55140;SDS011;41035;44.280;19.870;2022-07-10T13:34:14;2.30;;;0.98;;
55140;SDS011;41035;44.280;19.870;2022-07-10T13:36:40;0.60;;;0.60;;
55140;SDS011;41035;44.280;19.870;2022-07-10T13:39:07;0.80;;;0.70;;
55140;SDS011;41035;44.280;19.870;2022-07-10T13:41:34;1.58;;;0.90;;
55140;SDS011;41035;44.280;19.870;2022-07-10T13:44:00;2.15;;;0.85;;
55140;SDS011;41035;44.280;19.870;2022-07-10T13:46:26;1.55;;;0.70;;
55140;SDS011;41035;44.280;19.870;2022-07-10T13:48:52;0.70;;;0.65;;
55140;SDS011;41035;44.280;19.870;2022-07-10T13:51:18;0.90;;;0.80;;
55140;SDS011;41035;44.280;19.870;2022-07-10T13:53:44;1.17;;;0.70;;
55140;SDS011;41035;44.280;19.870;2022-07-10T13:56:11;1.67;;;0.88;;
55140;SDS011;41035;44.280;19.870;2022-07-10T13:58:37;2.15;;;0.50;;
55140;SDS011;41035;44.280;19.870;2022-07-10T14:01:03;2.38;;;0.60;;
55140;SDS011;41035;44.280;19.870;2022-07-10T14:03:30;2.30;;;1.65;;
55140;SDS011;41035;44.280;19.870;2022-07-10T14:05:57;2.95;;;0.82;;
55140;SDS011;41035;44.280;19.870;2022-07-10T14:08:23;2.97;;;0.90;;
55140;SDS011;41035;44.280;19.870;2022-07-10T14:10:49;1.75;;;0.88;;
55140;SDS011;41035;44.280;19.870;2022-07-10T14:13:15;5.57;;;0.70;;
55140;SDS011;41035;44.280;19.870;2022-07-10T14:15:42;1.05;;;0.63;;
55140;SDS011;41035;44.280;19.870;2022-07-10T14:18:11;2.20;;;0.60;;
55140;SDS011;41035;44.280;19.870;2022-07-10T14:20:37;4.70;;;1.10;;
55140;SDS011;41035;44.280;19.870;2022-07-10T14:23:22;2.90;;;0.98;;
55140;SDS011;41035;44.280;19.870;2022-07-10T14:25:51;2.83;;;0.75;;
55140;SDS011;41035;44.280;19.870;2022-07-10T14:28:19;2.35;;;0.95;;
55140;SDS011;41035;44.280;19.870;2022-07-10T14:30:45;4.82;;;0.85;;
55140;SDS011;41035;44.280;19.870;2022-07-10T14:33:12;2.55;;;0.70;;
55140;SDS011;41035;44.280;19.870;2022-07-10T14:35:38;3.33;;;1.10;;
55140;SDS011;41035;44.280;19.870;2022-07-10T14:38:04;13.93;;;1.10;;
55140;SDS011;41035;44.280;19.870;2022-07-10T14:40:30;3.60;;;0.88;;
55140;SDS011;41035;44.280;19.870;2022-07-10T14:42:56;1.50;;;0.90;;
55140;SDS011;41035;44.280;19.870;2022-07-10T14:45:23;1.80;;;1.00;;
55140;SDS011;41035;44.280;19.870;2022-07-10T14:47:49;1.85;;;1.05;;
55140;SDS011;41035;44.280;19.870;2022-07-10T14:50:15;8.15;;;0.90;;
55140;SDS011;41035;44.280;19.870;2022-07-10T14:52:42;3.90;;;0.70;;
55140;SDS011;41035;44.280;19.870;2022-07-10T14:55:08;1.88;;;0.80;;
55140;SDS011;41035;44.280;19.870;2022-07-10T14:57:34;2.30;;;0.90;;
55140;SDS011;41035;44.280;19.870;2022-07-10T15:00:01;3.13;;;0.80;;
55140;SDS011;41035;44.280;19.870;2022-07-10T15:02:27;1.15;;;0.70;;